createdAt,value
2017-12-25T00:00:41.546Z,964.49
2017-12-25T00:01:41.572Z,964.55
2017-12-25T00:02:41.575Z,964.51
2017-12-25T00:03:41.599Z,964.54
2017-12-25T00:04:41.602Z,964.53
2017-12-25T00:05:41.614Z,964.54
2017-12-25T00:06:41.640Z,964.52
2017-12-25T00:07:41.655Z,964.53
2017-12-25T00:08:41.656Z,964.54
2017-12-25T00:09:41.670Z,964.54
2017-12-25T00:10:41.685Z,964.54
2017-12-25T00:11:41.700Z,964.53
2017-12-25T00:12:41.712Z,964.5
2017-12-25T00:13:41.726Z,964.52
2017-12-25T00:14:41.740Z,964.53
2017-12-25T00:15:41.756Z,964.49
2017-12-25T00:16:41.767Z,964.51
2017-12-25T00:17:41.854Z,964.51
2017-12-25T00:18:41.796Z,964.51
2017-12-25T00:19:41.809Z,964.47
2017-12-25T00:20:41.822Z,964.47
2017-12-25T00:21:41.836Z,964.48
2017-12-25T00:22:41.851Z,964.45
2017-12-25T00:23:41.865Z,964.46
2017-12-25T00:24:41.878Z,964.46
2017-12-25T00:25:41.893Z,964.45
2017-12-25T00:26:41.908Z,964.44
2017-12-25T00:27:42.021Z,964.44
2017-12-25T00:28:41.934Z,964.51
2017-12-25T00:29:41.947Z,964.47
2017-12-25T00:30:41.962Z,964.43
2017-12-25T00:31:41.986Z,964.44
2017-12-25T00:32:42.039Z,964.38
2017-12-25T00:33:42.008Z,964.42
2017-12-25T00:34:42.016Z,964.41
2017-12-25T00:35:42.030Z,964.41
2017-12-25T00:36:42.045Z,964.38
2017-12-25T00:37:42.059Z,964.41
2017-12-25T00:38:42.075Z,964.39
2017-12-25T00:39:42.094Z,964.36
2017-12-25T00:40:42.101Z,964.35
2017-12-25T00:41:42.113Z,964.38
2017-12-25T00:42:42.128Z,964.37
2017-12-25T00:43:42.142Z,964.4
2017-12-25T00:44:42.160Z,964.31
2017-12-25T00:45:42.171Z,964.31
2017-12-25T00:46:42.184Z,964.3
2017-12-25T00:47:42.247Z,964.32
2017-12-25T00:48:42.212Z,964.32
2017-12-25T00:49:42.226Z,964.29
2017-12-25T00:50:42.239Z,964.28
2017-12-25T00:51:42.254Z,964.33
2017-12-25T00:52:42.266Z,964.3
2017-12-25T00:53:42.281Z,964.31
2017-12-25T00:54:42.294Z,964.37
2017-12-25T00:55:42.309Z,964.34
2017-12-25T00:56:42.322Z,964.33
2017-12-25T00:57:42.337Z,964.38
2017-12-25T00:58:42.350Z,964.38
2017-12-25T00:59:42.364Z,964.36
2017-12-25T01:00:42.378Z,964.39
2017-12-25T01:01:42.391Z,964.39
2017-12-25T01:02:43.457Z,964.36
2017-12-25T01:03:42.419Z,964.44
2017-12-25T01:04:42.436Z,964.46
2017-12-25T01:05:42.447Z,964.43
2017-12-25T01:06:42.460Z,964.39
2017-12-25T01:07:42.474Z,964.4
2017-12-25T01:08:42.488Z,964.37
2017-12-25T01:09:42.501Z,964.33
2017-12-25T01:10:42.513Z,964.33
2017-12-25T01:11:42.527Z,964.34
2017-12-25T01:12:42.540Z,964.41
2017-12-25T01:13:42.555Z,964.39
2017-12-25T01:14:42.566Z,964.38
2017-12-25T01:15:42.579Z,964.4
2017-12-25T01:16:42.594Z,964.41
2017-12-25T01:17:42.607Z,964.41
2017-12-25T01:18:42.619Z,964.41
2017-12-25T01:19:42.633Z,964.39
2017-12-25T01:20:42.647Z,964.41
2017-12-25T01:21:42.662Z,964.35
2017-12-25T01:22:42.674Z,964.37
2017-12-25T01:23:42.686Z,964.37
2017-12-25T01:24:42.699Z,964.36
2017-12-25T01:25:42.711Z,964.34
2017-12-25T01:26:42.724Z,964.42
2017-12-25T01:27:42.738Z,964.39
2017-12-25T01:28:42.750Z,964.46
2017-12-25T01:29:42.763Z,964.43
2017-12-25T01:30:42.777Z,964.48
2017-12-25T01:31:42.790Z,964.44
2017-12-25T01:32:42.802Z,964.43
2017-12-25T01:33:42.814Z,964.44
2017-12-25T01:34:42.828Z,964.45
2017-12-25T01:35:42.842Z,964.47
2017-12-25T01:36:42.853Z,964.44
2017-12-25T01:37:42.867Z,964.51
2017-12-25T01:38:42.881Z,964.47
2017-12-25T01:39:42.893Z,964.5
2017-12-25T01:40:42.905Z,964.5
2017-12-25T01:41:42.919Z,964.5
2017-12-25T01:42:42.932Z,964.47
2017-12-25T01:43:42.956Z,964.41
2017-12-25T01:44:42.958Z,964.44
2017-12-25T01:45:42.970Z,964.37
2017-12-25T01:46:42.983Z,964.38
2017-12-25T01:47:42.997Z,964.42
2017-12-25T01:48:43.011Z,964.36
2017-12-25T01:49:43.022Z,964.38
2017-12-25T01:50:43.039Z,964.39
2017-12-25T01:51:43.049Z,964.33
2017-12-25T01:52:43.063Z,964.33
2017-12-25T01:53:43.074Z,964.31
2017-12-25T01:54:43.086Z,964.31
2017-12-25T01:55:43.100Z,964.27
2017-12-25T01:56:43.113Z,964.27
2017-12-25T01:57:43.131Z,964.26
2017-12-25T01:58:43.138Z,964.27
2017-12-25T01:59:43.151Z,964.19
2017-12-25T02:00:43.165Z,964.19
2017-12-25T02:01:43.177Z,964.24
2017-12-25T02:02:43.189Z,964.2
2017-12-25T02:03:43.203Z,964.18
2017-12-25T02:04:43.216Z,964.15
2017-12-25T02:05:43.228Z,964.13
2017-12-25T02:06:43.241Z,964.15
2017-12-25T02:07:43.254Z,964.19
2017-12-25T02:08:43.267Z,964.14
2017-12-25T02:09:43.280Z,964.16
2017-12-25T02:10:43.292Z,964.14
2017-12-25T02:11:43.305Z,964.14
2017-12-25T02:12:43.319Z,964.16
2017-12-25T02:13:43.332Z,964.15
2017-12-25T02:14:43.345Z,964.14
2017-12-25T02:15:43.358Z,964.14
2017-12-25T02:16:43.371Z,964.14
2017-12-25T02:17:43.384Z,964.14
2017-12-25T02:18:43.398Z,964.1
2017-12-25T02:19:43.412Z,964.15
2017-12-25T02:20:43.425Z,964.07
2017-12-25T02:21:43.437Z,964.08
2017-12-25T02:22:43.451Z,964.1
2017-12-25T02:23:43.463Z,964.1
2017-12-25T02:24:43.478Z,964.09
2017-12-25T02:25:43.489Z,964.06
2017-12-25T02:26:43.506Z,964.06
2017-12-25T02:27:43.516Z,964.08
2017-12-25T02:28:43.530Z,964.03
2017-12-25T02:29:43.547Z,963.99
2017-12-25T02:30:43.557Z,964
2017-12-25T02:31:43.570Z,963.98
2017-12-25T02:32:43.585Z,963.95
2017-12-25T02:33:43.598Z,963.95
2017-12-25T02:34:43.612Z,963.95
2017-12-25T02:35:43.625Z,963.98
2017-12-25T02:36:43.639Z,963.97
2017-12-25T02:37:43.655Z,963.95
2017-12-25T02:38:43.664Z,964
2017-12-25T02:39:43.680Z,963.93
2017-12-25T02:40:43.693Z,963.97
2017-12-25T02:41:43.707Z,963.95
2017-12-25T02:42:43.719Z,963.91
2017-12-25T02:43:43.732Z,963.93
2017-12-25T02:44:43.746Z,963.96
2017-12-25T02:45:43.761Z,963.95
2017-12-25T02:46:43.773Z,964
2017-12-25T02:47:43.788Z,963.96
2017-12-25T02:48:43.800Z,963.95
2017-12-25T02:49:43.863Z,963.93
2017-12-25T02:50:43.829Z,963.94
2017-12-25T02:51:43.842Z,963.9
2017-12-25T02:52:43.854Z,963.88
2017-12-25T02:53:43.867Z,963.92
2017-12-25T02:54:43.880Z,963.91
2017-12-25T02:55:43.895Z,963.87
2017-12-25T02:56:43.907Z,963.9
2017-12-25T02:57:43.921Z,963.88
2017-12-25T02:58:43.934Z,963.91
2017-12-25T02:59:43.947Z,963.85
2017-12-25T03:00:43.967Z,963.87
2017-12-25T03:01:43.972Z,963.87
2017-12-25T03:02:43.992Z,963.86
2017-12-25T03:03:44.000Z,963.89
2017-12-25T03:04:44.061Z,963.89
2017-12-25T03:05:44.025Z,963.85
2017-12-25T03:06:44.038Z,963.92
2017-12-25T03:07:44.051Z,963.91
2017-12-25T03:08:44.063Z,963.88
2017-12-25T03:09:44.077Z,963.88
2017-12-25T03:10:44.094Z,963.89
2017-12-25T03:11:44.102Z,963.88
2017-12-25T03:12:44.114Z,963.82
2017-12-25T03:13:44.127Z,963.85
2017-12-25T03:14:44.141Z,963.83
2017-12-25T03:15:44.152Z,963.81
2017-12-25T03:16:44.167Z,963.78
2017-12-25T03:17:44.179Z,963.81
2017-12-25T03:18:44.192Z,963.73
2017-12-25T03:19:44.252Z,963.75
2017-12-25T03:20:44.217Z,963.77
2017-12-25T03:21:44.229Z,963.77
2017-12-25T03:22:44.243Z,963.76
2017-12-25T03:23:44.254Z,963.74
2017-12-25T03:24:44.270Z,963.71
2017-12-25T03:25:44.281Z,963.73
2017-12-25T03:26:44.294Z,963.69
2017-12-25T03:27:44.308Z,963.66
2017-12-25T03:28:44.320Z,963.72
2017-12-25T03:29:44.332Z,963.66
2017-12-25T03:30:44.346Z,963.63
2017-12-25T03:31:44.358Z,963.59
2017-12-25T03:32:44.373Z,963.58
2017-12-25T03:33:44.384Z,963.54
2017-12-25T03:34:44.446Z,963.57
2017-12-25T03:35:44.410Z,963.56
2017-12-25T03:36:44.424Z,963.54
2017-12-25T03:37:44.436Z,963.58
2017-12-25T03:38:44.449Z,963.58
2017-12-25T03:39:44.463Z,963.55
2017-12-25T03:40:44.474Z,963.6
2017-12-25T03:41:44.489Z,963.5
2017-12-25T03:42:44.502Z,963.48
2017-12-25T03:43:44.515Z,963.51
2017-12-25T03:44:44.527Z,963.52
2017-12-25T03:45:44.543Z,963.48
2017-12-25T03:46:44.553Z,963.5
2017-12-25T03:47:44.565Z,963.48
2017-12-25T03:48:44.579Z,963.48
2017-12-25T03:49:44.692Z,963.41
2017-12-25T03:50:44.605Z,963.49
2017-12-25T03:51:44.618Z,963.48
2017-12-25T03:52:44.629Z,963.5
2017-12-25T03:53:44.646Z,963.48
2017-12-25T03:54:44.655Z,963.52
2017-12-25T03:55:44.669Z,963.47
2017-12-25T03:56:44.682Z,963.48
2017-12-25T03:57:44.694Z,963.45
2017-12-25T03:58:44.707Z,963.44
2017-12-25T03:59:44.719Z,963.46
2017-12-25T04:00:44.733Z,963.43
2017-12-25T04:01:44.746Z,963.42
2017-12-25T04:02:44.759Z,963.43
2017-12-25T04:03:44.771Z,963.43
2017-12-25T04:04:44.835Z,963.42
2017-12-25T04:05:44.798Z,963.45
2017-12-25T04:06:44.809Z,963.39
2017-12-25T04:07:44.826Z,963.36
2017-12-25T04:08:44.835Z,963.37
2017-12-25T04:09:44.850Z,963.36
2017-12-25T04:10:44.862Z,963.34
2017-12-25T04:11:44.875Z,963.34
2017-12-25T04:12:44.887Z,963.36
2017-12-25T04:13:44.901Z,963.42
2017-12-25T04:14:44.913Z,963.36
2017-12-25T04:15:44.926Z,963.4
2017-12-25T04:16:44.942Z,963.37
2017-12-25T04:17:44.951Z,963.34
2017-12-25T04:18:44.964Z,963.38
2017-12-25T04:19:45.027Z,963.31
2017-12-25T04:20:44.989Z,963.36
2017-12-25T04:21:45.003Z,963.32
2017-12-25T04:22:45.016Z,963.31
2017-12-25T04:23:45.032Z,963.36
2017-12-25T04:24:45.041Z,963.34
2017-12-25T04:25:45.053Z,963.35
2017-12-25T04:26:45.065Z,963.34
2017-12-25T04:27:45.082Z,963.35
2017-12-25T04:28:45.095Z,963.35
2017-12-25T04:29:45.102Z,963.34
2017-12-25T04:30:45.115Z,963.36
2017-12-25T04:31:45.128Z,963.36
2017-12-25T04:32:45.139Z,963.37
2017-12-25T04:33:45.153Z,963.36
2017-12-25T04:34:45.215Z,963.34
2017-12-25T04:35:45.178Z,963.31
2017-12-25T04:36:45.190Z,963.32
2017-12-25T04:37:45.203Z,963.29
2017-12-25T04:38:45.219Z,963.27
2017-12-25T04:39:45.229Z,963.2
2017-12-25T04:40:45.240Z,963.22
2017-12-25T04:41:45.252Z,963.23
2017-12-25T04:42:45.268Z,963.25
2017-12-25T04:43:45.277Z,963.23
2017-12-25T04:44:45.289Z,963.25
2017-12-25T04:45:45.301Z,963.21
2017-12-25T04:46:45.335Z,963.28
2017-12-25T04:47:45.326Z,963.26
2017-12-25T04:48:45.339Z,963.29
2017-12-25T04:49:45.401Z,963.23
2017-12-25T04:50:45.362Z,963.25
2017-12-25T04:51:45.376Z,963.24
2017-12-25T04:52:45.388Z,963.2
2017-12-25T04:53:45.602Z,963.27
2017-12-25T04:54:45.414Z,963.25
2017-12-25T04:55:45.425Z,963.28
2017-12-25T04:56:45.440Z,963.21
2017-12-25T04:57:45.451Z,963.16
2017-12-25T04:58:45.465Z,963.17
2017-12-25T04:59:45.477Z,963.23
2017-12-25T05:00:45.491Z,963.21
2017-12-25T05:01:45.502Z,963.24
2017-12-25T05:02:45.515Z,963.23
2017-12-25T05:03:45.528Z,963.24
2017-12-25T05:04:45.591Z,963.23
2017-12-25T05:05:45.552Z,963.24
2017-12-25T05:06:45.566Z,963.19
2017-12-25T05:07:45.577Z,963.19
2017-12-25T05:08:45.591Z,963.11
2017-12-25T05:09:45.603Z,963.14
2017-12-25T05:10:45.617Z,963.13
2017-12-25T05:11:45.647Z,963.13
2017-12-25T05:12:45.642Z,963.04
2017-12-25T05:13:45.654Z,963.05
2017-12-25T05:14:45.667Z,963.04
2017-12-25T05:15:45.680Z,963.07
2017-12-25T05:16:45.694Z,963.04
2017-12-25T05:17:45.707Z,963.09
2017-12-25T05:18:45.724Z,963.06
2017-12-25T05:19:45.782Z,963.05
2017-12-25T05:20:45.744Z,963.05
2017-12-25T05:21:45.759Z,963.06
2017-12-25T05:22:45.771Z,963.08
2017-12-25T05:23:45.783Z,963.08
2017-12-25T05:24:45.797Z,963.06
2017-12-25T05:25:45.818Z,963.02
2017-12-25T05:26:45.823Z,963.06
2017-12-25T05:27:45.839Z,963.01
2017-12-25T05:28:45.849Z,963.02
2017-12-25T05:29:45.962Z,962.99
2017-12-25T05:30:45.875Z,962.98
2017-12-25T05:31:45.888Z,962.99
2017-12-25T05:32:45.900Z,962.95
2017-12-25T05:33:45.914Z,962.95
2017-12-25T05:34:45.928Z,962.96
2017-12-25T05:35:45.939Z,962.92
2017-12-25T05:36:45.953Z,962.96
2017-12-25T05:37:45.965Z,962.92
2017-12-25T05:38:45.978Z,962.91
2017-12-25T05:39:45.990Z,962.91
2017-12-25T05:40:46.008Z,962.86
2017-12-25T05:41:46.016Z,962.83
2017-12-25T05:42:46.038Z,962.89
2017-12-25T05:43:46.042Z,962.84
2017-12-25T05:44:46.054Z,962.87
2017-12-25T05:45:46.066Z,962.79
2017-12-25T05:46:46.078Z,962.82
2017-12-25T05:47:46.093Z,962.82
2017-12-25T05:48:46.104Z,962.8
2017-12-25T05:49:46.117Z,962.81
2017-12-25T05:50:46.130Z,962.78
2017-12-25T05:51:46.143Z,962.77
2017-12-25T05:52:46.158Z,962.77
2017-12-25T05:53:46.168Z,962.74
2017-12-25T05:54:46.196Z,962.71
2017-12-25T05:55:46.193Z,962.74
2017-12-25T05:56:46.213Z,962.72
2017-12-25T05:57:46.219Z,962.7
2017-12-25T05:58:46.231Z,962.69
2017-12-25T05:59:46.243Z,962.75
2017-12-25T06:00:46.256Z,962.7
2017-12-25T06:01:46.270Z,962.73
2017-12-25T06:02:46.283Z,962.75
2017-12-25T06:03:46.295Z,962.72
2017-12-25T06:04:46.308Z,962.73
2017-12-25T06:05:46.326Z,962.76
2017-12-25T06:06:46.333Z,962.71
2017-12-25T06:07:46.346Z,962.72
2017-12-25T06:08:46.358Z,962.71
2017-12-25T06:09:46.372Z,962.7
2017-12-25T06:10:46.384Z,962.72
2017-12-25T06:11:46.396Z,962.78
2017-12-25T06:12:46.409Z,962.75
2017-12-25T06:13:46.422Z,962.74
2017-12-25T06:14:46.435Z,962.76
2017-12-25T06:15:46.447Z,962.78
2017-12-25T06:16:46.459Z,962.77
2017-12-25T06:17:46.472Z,962.77
2017-12-25T06:18:46.484Z,962.75
2017-12-25T06:19:46.499Z,962.76
2017-12-25T06:20:46.510Z,962.76
2017-12-25T06:21:46.522Z,962.76
2017-12-25T06:22:46.535Z,962.8
2017-12-25T06:23:46.551Z,962.73
2017-12-25T06:24:46.562Z,962.73
2017-12-25T06:25:46.592Z,962.72
2017-12-25T06:26:46.585Z,962.73
2017-12-25T06:27:46.596Z,962.73
2017-12-25T06:28:46.711Z,962.7
2017-12-25T06:29:46.626Z,962.7
2017-12-25T06:30:46.641Z,962.69
2017-12-25T06:31:46.647Z,962.67
2017-12-25T06:32:46.659Z,962.66
2017-12-25T06:33:46.672Z,962.63
2017-12-25T06:34:46.685Z,962.67
2017-12-25T06:35:46.697Z,962.64
2017-12-25T06:36:46.707Z,962.61
2017-12-25T06:37:46.721Z,962.56
2017-12-25T06:38:46.784Z,962.56
2017-12-25T06:39:46.745Z,962.58
2017-12-25T06:40:46.757Z,962.56
2017-12-25T06:41:46.770Z,962.58
2017-12-25T06:42:46.783Z,962.57
2017-12-25T06:43:46.796Z,962.57
2017-12-25T06:44:46.813Z,962.54
2017-12-25T06:45:46.820Z,962.52
2017-12-25T06:46:46.836Z,962.5
2017-12-25T06:47:46.899Z,962.51
2017-12-25T06:48:46.859Z,962.48
2017-12-25T06:49:46.870Z,962.49
2017-12-25T06:50:46.882Z,962.51
2017-12-25T06:51:46.900Z,962.53
2017-12-25T06:52:46.906Z,962.54
2017-12-25T06:53:46.970Z,962.51
2017-12-25T06:54:46.931Z,962.49
2017-12-25T06:55:46.945Z,962.51
2017-12-25T06:56:46.958Z,962.47
2017-12-25T06:57:46.970Z,962.47
2017-12-25T06:58:46.981Z,962.49
2017-12-25T06:59:46.997Z,962.48
2017-12-25T07:00:47.008Z,962.47
2017-12-25T07:01:47.020Z,962.45
2017-12-25T07:02:47.033Z,962.44
2017-12-25T07:03:47.046Z,962.48
2017-12-25T07:04:47.058Z,962.42
2017-12-25T07:05:47.070Z,962.44
2017-12-25T07:06:47.083Z,962.43
2017-12-25T07:07:47.103Z,962.38
2017-12-25T07:08:47.108Z,962.41
2017-12-25T07:09:47.121Z,962.41
2017-12-25T07:10:47.137Z,962.4
2017-12-25T07:11:47.148Z,962.42
2017-12-25T07:12:47.158Z,962.43
2017-12-25T07:13:47.173Z,962.41
2017-12-25T07:14:47.186Z,962.35
2017-12-25T07:15:47.199Z,962.42
2017-12-25T07:16:47.213Z,962.4
2017-12-25T07:17:47.223Z,962.39
2017-12-25T07:18:47.238Z,962.4
2017-12-25T07:19:47.251Z,962.38
2017-12-25T07:20:47.266Z,962.38
2017-12-25T07:21:47.277Z,962.36
2017-12-25T07:22:47.288Z,962.36
2017-12-25T07:23:47.300Z,962.35
2017-12-25T07:24:47.364Z,962.35
2017-12-25T07:25:47.325Z,962.31
2017-12-25T07:26:47.339Z,962.33
2017-12-25T07:27:47.364Z,962.31
2017-12-25T07:28:47.364Z,962.3
2017-12-25T07:29:47.377Z,962.34
2017-12-25T07:30:47.392Z,962.31
2017-12-25T07:31:47.404Z,962.29
2017-12-25T07:32:47.417Z,962.31
2017-12-25T07:33:47.430Z,962.37
2017-12-25T07:34:47.446Z,962.33
2017-12-25T07:35:47.456Z,962.3
2017-12-25T07:36:47.472Z,962.31
2017-12-25T07:37:47.481Z,962.32
2017-12-25T07:38:47.491Z,962.29
2017-12-25T07:39:47.558Z,962.31
2017-12-25T07:40:47.520Z,962.35
2017-12-25T07:41:47.532Z,962.38
2017-12-25T07:42:47.546Z,962.32
2017-12-25T07:43:47.559Z,962.35
2017-12-25T07:44:47.571Z,962.32
2017-12-25T07:45:47.584Z,962.35
2017-12-25T07:46:47.604Z,962.35
2017-12-25T07:47:47.610Z,962.41
2017-12-25T07:48:47.623Z,962.41
2017-12-25T07:49:47.638Z,962.41
2017-12-25T07:50:47.649Z,962.43
2017-12-25T07:51:47.663Z,962.38
2017-12-25T07:52:47.677Z,962.43
2017-12-25T07:53:47.690Z,962.41
2017-12-25T07:54:47.854Z,962.43
2017-12-25T07:55:47.717Z,962.42
2017-12-25T07:56:47.734Z,962.44
2017-12-25T07:57:47.742Z,962.43
2017-12-25T07:58:47.756Z,962.43
2017-12-25T07:59:47.770Z,962.43
2017-12-25T08:00:47.787Z,962.45
2017-12-25T08:01:47.797Z,962.44
2017-12-25T08:02:47.811Z,962.47
2017-12-25T08:03:47.825Z,962.47
2017-12-25T08:04:47.840Z,962.45
2017-12-25T08:05:47.851Z,962.45
2017-12-25T08:06:47.867Z,962.44
2017-12-25T08:07:47.879Z,962.45
2017-12-25T08:08:47.892Z,962.46
2017-12-25T08:09:47.956Z,962.51
2017-12-25T08:10:47.920Z,962.49
2017-12-25T08:11:47.934Z,962.44
2017-12-25T08:12:47.947Z,962.42
2017-12-25T08:13:47.960Z,962.39
2017-12-25T08:14:47.974Z,962.44
2017-12-25T08:15:47.986Z,962.43
2017-12-25T08:16:48.001Z,962.39
2017-12-25T08:17:48.015Z,962.44
2017-12-25T08:18:48.028Z,962.4
2017-12-25T08:19:48.043Z,962.4
2017-12-25T08:20:48.056Z,962.44
2017-12-25T08:21:48.071Z,962.36
2017-12-25T08:22:48.082Z,962.37
2017-12-25T08:23:48.096Z,962.39
2017-12-25T08:24:48.160Z,962.36
2017-12-25T08:25:48.123Z,962.38
2017-12-25T08:26:48.138Z,962.34
2017-12-25T08:27:48.151Z,962.36
2017-12-25T08:28:48.164Z,962.33
2017-12-25T08:29:48.178Z,962.33
2017-12-25T08:30:48.193Z,962.36
2017-12-25T08:31:48.206Z,962.34
2017-12-25T08:32:48.220Z,962.34
2017-12-25T08:33:48.235Z,962.37
2017-12-25T08:34:48.250Z,962.32
2017-12-25T08:35:48.261Z,962.36
2017-12-25T08:36:48.275Z,962.3
2017-12-25T08:37:48.290Z,962.33
2017-12-25T08:38:48.304Z,962.29
2017-12-25T08:39:48.367Z,962.35
2017-12-25T08:40:48.331Z,962.4
2017-12-25T08:41:48.345Z,962.37
2017-12-25T08:42:48.360Z,962.4
2017-12-25T08:43:48.375Z,962.38
2017-12-25T08:44:48.388Z,962.38
2017-12-25T08:45:48.403Z,962.35
2017-12-25T08:46:48.418Z,962.34
2017-12-25T08:47:48.430Z,962.33
2017-12-25T08:48:48.442Z,962.35
2017-12-25T08:49:48.458Z,962.37
2017-12-25T08:50:48.474Z,962.38
2017-12-25T08:51:48.485Z,962.38
2017-12-25T08:52:48.505Z,962.39
2017-12-25T08:53:48.514Z,962.39
2017-12-25T08:54:48.577Z,962.44
2017-12-25T08:55:48.542Z,962.42
2017-12-25T08:56:48.555Z,962.42
2017-12-25T08:57:48.568Z,962.42
2017-12-25T08:58:48.582Z,962.42
2017-12-25T08:59:48.696Z,962.4
2017-12-25T09:00:48.610Z,962.4
2017-12-25T09:01:48.625Z,962.4
2017-12-25T09:02:48.639Z,962.38
2017-12-25T09:03:48.654Z,962.36
2017-12-25T09:04:48.673Z,962.37
2017-12-25T09:05:48.680Z,962.34
2017-12-25T09:06:48.695Z,962.34
2017-12-25T09:07:48.708Z,962.36
2017-12-25T09:08:48.723Z,962.33
2017-12-25T09:09:48.785Z,962.3
2017-12-25T09:10:48.750Z,962.31
2017-12-25T09:11:48.764Z,962.35
2017-12-25T09:12:48.780Z,962.32
2017-12-25T09:13:48.791Z,962.35
2017-12-25T09:14:48.806Z,962.32
2017-12-25T09:15:48.821Z,962.3
2017-12-25T09:16:48.836Z,962.27
2017-12-25T09:17:48.847Z,962.28
2017-12-25T09:18:48.865Z,962.32
2017-12-25T09:19:48.977Z,962.31
2017-12-25T09:20:48.889Z,962.31
2017-12-25T09:21:48.904Z,962.29
2017-12-25T09:22:48.919Z,962.26
2017-12-25T09:23:48.932Z,962.27
2017-12-25T09:24:48.996Z,962.27
2017-12-25T09:25:48.961Z,962.25
2017-12-25T09:26:48.983Z,962.27
2017-12-25T09:27:48.990Z,962.26
2017-12-25T09:28:49.005Z,962.26
2017-12-25T09:29:49.017Z,962.19
2017-12-25T09:30:49.034Z,962.26
2017-12-25T09:31:49.044Z,962.3
2017-12-25T09:32:49.058Z,962.29
2017-12-25T09:33:49.073Z,962.32
2017-12-25T09:34:49.087Z,962.28
2017-12-25T09:35:49.102Z,962.24
2017-12-25T09:36:49.113Z,962.21
2017-12-25T09:37:49.129Z,962.24
2017-12-25T09:38:49.142Z,962.2
2017-12-25T09:39:49.176Z,962.21
2017-12-25T09:40:49.170Z,962.18
2017-12-25T09:41:49.184Z,962.18
2017-12-25T09:42:49.199Z,962.24
2017-12-25T09:43:49.212Z,962.2
2017-12-25T09:44:49.236Z,962.23
2017-12-25T09:45:49.241Z,962.22
2017-12-25T09:46:49.254Z,962.19
2017-12-25T09:47:49.269Z,962.2
2017-12-25T09:48:49.284Z,962.18
2017-12-25T09:49:49.297Z,962.17
2017-12-25T09:50:49.313Z,962.16
2017-12-25T09:51:49.325Z,962.17
2017-12-25T09:52:49.342Z,962.15
2017-12-25T09:53:49.355Z,962.1
2017-12-25T09:54:49.370Z,962.1
2017-12-25T09:55:49.384Z,962.12
2017-12-25T09:56:49.397Z,962.15
2017-12-25T09:57:49.421Z,962.19
2017-12-25T09:58:49.428Z,962.14
2017-12-25T09:59:49.446Z,962.17
2017-12-25T10:00:49.459Z,962.17
2017-12-25T10:01:49.475Z,962.17
2017-12-25T10:02:49.490Z,962.14
2017-12-25T10:03:49.508Z,962.11
2017-12-25T10:04:49.525Z,962.09
2017-12-25T10:05:49.541Z,962.14
2017-12-25T10:06:49.562Z,962.11
2017-12-25T10:07:49.579Z,962.1
2017-12-25T10:08:49.595Z,962.1
2017-12-25T10:09:49.616Z,962.06
2017-12-25T10:10:49.635Z,962.05
2017-12-25T10:11:49.654Z,962.07
2017-12-25T10:12:49.672Z,962.02
2017-12-25T10:13:49.694Z,962.01
2017-12-25T10:14:49.716Z,962.02
2017-12-25T10:15:49.736Z,961.99
2017-12-25T10:16:49.757Z,962
2017-12-25T10:17:49.778Z,962
2017-12-25T10:18:49.801Z,961.97
2017-12-25T10:19:49.821Z,961.97
2017-12-25T10:20:49.892Z,961.97
2017-12-25T10:21:49.875Z,961.95
2017-12-25T10:22:49.889Z,961.94
2017-12-25T10:23:49.911Z,961.89
2017-12-25T10:24:49.935Z,961.89
2017-12-25T10:25:49.959Z,961.93
2017-12-25T10:26:49.981Z,961.85
2017-12-25T10:27:50.006Z,961.87
2017-12-25T10:28:50.029Z,961.88
2017-12-25T10:29:50.054Z,961.88
2017-12-25T10:30:50.077Z,961.86
2017-12-25T10:31:50.102Z,961.9
2017-12-25T10:32:50.126Z,961.86
2017-12-25T10:33:50.149Z,961.84
2017-12-25T10:34:50.175Z,961.84
2017-12-25T10:35:50.200Z,961.85
2017-12-25T10:36:50.226Z,961.86
2017-12-25T10:37:50.251Z,961.8
2017-12-25T10:38:50.276Z,961.82
2017-12-25T10:39:50.302Z,961.8
2017-12-25T10:40:50.329Z,961.75
2017-12-25T10:41:50.352Z,961.71
2017-12-25T10:42:50.379Z,961.73
2017-12-25T10:43:50.406Z,961.68
2017-12-25T10:44:50.432Z,961.64
2017-12-25T10:45:50.458Z,961.62
2017-12-25T10:46:50.485Z,961.58
2017-12-25T10:47:50.513Z,961.56
2017-12-25T10:48:50.540Z,961.57
2017-12-25T10:49:50.571Z,961.57
2017-12-25T10:50:50.593Z,961.54
2017-12-25T10:51:50.621Z,961.5
2017-12-25T10:52:50.646Z,961.51
2017-12-25T10:53:50.673Z,961.49
2017-12-25T10:54:50.703Z,961.47
2017-12-25T10:55:50.729Z,961.43
2017-12-25T10:56:50.755Z,961.44
2017-12-25T10:57:50.783Z,961.45
2017-12-25T10:58:50.811Z,961.42
2017-12-25T10:59:50.839Z,961.39
2017-12-25T11:00:50.867Z,961.42
2017-12-25T11:01:50.894Z,961.41
2017-12-25T11:02:50.922Z,961.4
2017-12-25T11:03:50.949Z,961.38
2017-12-25T11:04:50.976Z,961.39
2017-12-25T11:05:51.005Z,961.27
2017-12-25T11:06:51.032Z,961.33
2017-12-25T11:07:51.061Z,961.27
2017-12-25T11:08:51.089Z,961.2
2017-12-25T11:09:51.117Z,961.24
2017-12-25T11:10:51.145Z,961.25
2017-12-25T11:11:51.173Z,961.21
2017-12-25T11:12:51.203Z,961.18
2017-12-25T11:13:51.231Z,961.13
2017-12-25T11:14:51.259Z,961.08
2017-12-25T11:15:51.288Z,961.09
2017-12-25T11:16:51.317Z,961.08
2017-12-25T11:17:51.345Z,961.04
2017-12-25T11:18:51.373Z,961.05
2017-12-25T11:19:51.406Z,961.01
2017-12-25T11:20:51.434Z,961.02
2017-12-25T11:21:51.460Z,961.01
2017-12-25T11:22:51.490Z,960.96
2017-12-25T11:23:51.560Z,960.96
2017-12-25T11:24:51.548Z,960.96
2017-12-25T11:25:51.576Z,960.9
2017-12-25T11:26:51.607Z,960.87
2017-12-25T11:27:51.637Z,960.89
2017-12-25T11:28:51.667Z,960.88
2017-12-25T11:29:51.697Z,960.86
2017-12-25T11:30:51.728Z,960.84
2017-12-25T11:31:51.757Z,960.8
2017-12-25T11:32:51.786Z,960.79
2017-12-25T11:33:51.816Z,960.75
2017-12-25T11:34:51.847Z,960.79
2017-12-25T11:35:51.879Z,960.74
2017-12-25T11:36:51.907Z,960.71
2017-12-25T11:37:51.938Z,960.71
2017-12-25T11:38:51.970Z,960.72
2017-12-25T11:39:52.004Z,960.72
2017-12-25T11:40:52.032Z,960.69
2017-12-25T11:41:52.070Z,960.66
2017-12-25T11:42:52.094Z,960.65
2017-12-25T11:43:52.125Z,960.64
2017-12-25T11:44:52.155Z,960.63
2017-12-25T11:45:52.187Z,960.59
2017-12-25T11:46:52.218Z,960.59
2017-12-25T11:47:52.250Z,960.57
2017-12-25T11:48:52.282Z,960.57
2017-12-25T11:49:52.315Z,960.57
2017-12-25T11:50:52.345Z,960.57
2017-12-25T11:51:52.376Z,960.57
2017-12-25T11:52:52.413Z,960.55
2017-12-25T11:53:52.439Z,960.53
2017-12-25T11:54:52.472Z,960.52
2017-12-25T11:55:52.503Z,960.51
2017-12-25T11:56:52.536Z,960.48
2017-12-25T11:57:52.568Z,960.47
2017-12-25T11:58:52.600Z,960.46
2017-12-25T11:59:52.632Z,960.49
2017-12-25T12:00:52.664Z,960.43
2017-12-25T12:01:52.696Z,960.43
2017-12-25T12:02:52.728Z,960.42
2017-12-25T12:03:52.761Z,960.42
2017-12-25T12:04:52.794Z,960.43
2017-12-25T12:05:52.857Z,960.42
2017-12-25T12:06:52.871Z,960.43
2017-12-25T12:07:52.890Z,960.41
2017-12-25T12:08:52.923Z,960.39
2017-12-25T12:09:52.955Z,960.35
2017-12-25T12:10:52.988Z,960.37
2017-12-25T12:11:53.020Z,960.34
2017-12-25T12:12:53.053Z,960.33
2017-12-25T12:13:53.237Z,960.34
2017-12-25T12:14:53.118Z,960.34
2017-12-25T12:15:53.152Z,960.32
2017-12-25T12:16:53.184Z,960.32
2017-12-25T12:17:53.217Z,960.3
2017-12-25T12:18:53.251Z,960.28
2017-12-25T12:19:53.284Z,960.31
2017-12-25T12:20:53.317Z,960.28
2017-12-25T12:21:53.349Z,960.29
2017-12-25T12:22:53.383Z,960.29
2017-12-25T12:23:53.414Z,960.31
2017-12-25T12:24:53.447Z,960.26
2017-12-25T12:25:53.481Z,960.28
2017-12-25T12:26:53.514Z,960.27
2017-12-25T12:27:53.546Z,960.28
2017-12-25T12:28:53.672Z,960.23
2017-12-25T12:29:53.614Z,960.21
2017-12-25T12:30:53.649Z,960.18